Hovedside
METAR-TAF:

METAR-TAF

Lufthavner :

Stockholm-Arlanda, Sverige

Arlanda lufthavn

breddegrad: 59-39N, lengdegrad: 017-57E, høyde over havet: 38 m

Gjeldene værobservasjon

Denne rapporten ble laget for 41 minutter siden, klokken 09:50 UTC
Vind 17 kt fra Sørvest
Temperatur 16°C
Luftfuktighet 59%
Trykk 993 hPa
Sikt 10 km eller mer
Spredte skyer i en høyde av 3300 ft

METAR: ESSA 250950Z 22017KT 9999 SCT033 16/08 Q0993 NOSIG

Tid: 12:31 (10:31 UTC)


TAF: fraværende

Værobservasjoner og værvarsel for over 4000 flyplasser (METAR- og TAF-rapporter).

Tilgjengelige stasjoner er representert av de røde og gule prikkene på kartet.

Hold musepekeren over prikken for å se navnet på stasjonen.

Klikk så for å se værobservasjoner og -varsler.

For å forandre kartet kan du klikke på den grønne knappen med svart kryss for å zoome inn, på den grønne knappen med strek for å zoome ut, eller på de grønne pilene for å se tilstøtende kart.


METAR-TAF: